sensor_id;sensor_type;location;lat;lon;timestamp;P1;P2;P0
69238;PMS5003;56349;51.816;-0.026;2023-04-06T00:00:41;7;7;
69238;PMS5003;56349;51.816;-0.026;2023-04-06T00:03:07;4;4;
69238;PMS5003;56349;51.816;-0.026;2023-04-06T00:05:32;5;4;
69238;PMS5003;56349;51.816;-0.026;2023-04-06T00:07:58;5;5;
69238;PMS5003;56349;51.816;-0.026;2023-04-06T00:10:24;4;4;
69238;PMS5003;56349;51.816;-0.026;2023-04-06T00:12:50;6;6;
69238;PMS5003;56349;51.816;-0.026;2023-04-06T00:15:16;6;6;
69238;PMS5003;56349;51.816;-0.026;2023-04-06T00:17:42;5;5;
69238;PMS5003;56349;51.816;-0.026;2023-04-06T00:20:09;6;5;
69238;PMS5003;56349;51.816;-0.026;2023-04-06T00:22:34;7;6;
69238;PMS5003;56349;51.816;-0.026;2023-04-06T00:25:00;5;5;
69238;PMS5003;56349;51.816;-0.026;2023-04-06T00:27:26;5;5;
69238;PMS5003;56349;51.816;-0.026;2023-04-06T00:29:52;7;6;
69238;PMS5003;56349;51.816;-0.026;2023-04-06T00:32:18;8;7;
69238;PMS5003;56349;51.816;-0.026;2023-04-06T00:34:44;4;4;
69238;PMS5003;56349;51.816;-0.026;2023-04-06T00:37:10;3;3;
69238;PMS5003;56349;51.816;-0.026;2023-04-06T00:39:35;5;5;
69238;PMS5003;56349;51.816;-0.026;2023-04-06T00:42:01;5;5;
69238;PMS5003;56349;51.816;-0.026;2023-04-06T00:44:27;8;6;
69238;PMS5003;56349;51.816;-0.026;2023-04-06T00:46:53;9;7;
69238;PMS5003;56349;51.816;-0.026;2023-04-06T00:49:18;5;4;
69238;PMS5003;56349;51.816;-0.026;2023-04-06T00:51:44;6;6;
69238;PMS5003;56349;51.816;-0.026;2023-04-06T00:54:10;5;5;
69238;PMS5003;56349;51.816;-0.026;2023-04-06T00:56:36;4;4;
69238;PMS5003;56349;51.816;-0.026;2023-04-06T00:59:02;6;5;
69238;PMS5003;56349;51.816;-0.026;2023-04-06T01:01:28;6;6;
69238;PMS5003;56349;51.816;-0.026;2023-04-06T01:03:53;4;4;
69238;PMS5003;56349;51.816;-0.026;2023-04-06T01:06:19;5;5;
69238;PMS5003;56349;51.816;-0.026;2023-04-06T01:08:45;5;5;
69238;PMS5003;56349;51.816;-0.026;2023-04-06T01:11:11;5;5;
69238;PMS5003;56349;51.816;-0.026;2023-04-06T01:13:37;6;6;
69238;PMS5003;56349;51.816;-0.026;2023-04-06T01:16:02;4;4;
69238;PMS5003;56349;51.816;-0.026;2023-04-06T01:18:28;7;6;
69238;PMS5003;56349;51.816;-0.026;2023-04-06T01:20:53;5;4;
69238;PMS5003;56349;51.816;-0.026;2023-04-06T01:23:19;4;4;
69238;PMS5003;56349;51.816;-0.026;2023-04-06T01:25:45;5;5;
69238;PMS5003;56349;51.816;-0.026;2023-04-06T01:28:11;3;3;
69238;PMS5003;56349;51.816;-0.026;2023-04-06T01:30:37;4;4;
69238;PMS5003;56349;51.816;-0.026;2023-04-06T01:33:03;6;5;
69238;PMS5003;56349;51.816;-0.026;2023-04-06T01:35:29;5;3;
69238;PMS5003;56349;51.816;-0.026;2023-04-06T01:37:54;2;2;
69238;PMS5003;56349;51.816;-0.026;2023-04-06T01:40:20;4;4;
69238;PMS5003;56349;51.816;-0.026;2023-04-06T01:42:46;5;4;
69238;PMS5003;56349;51.816;-0.026;2023-04-06T01:45:12;5;5;
69238;PMS5003;56349;51.816;-0.026;2023-04-06T01:47:38;2;2;
69238;PMS5003;56349;51.816;-0.026;2023-04-06T01:50:04;6;6;
69238;PMS5003;56349;51.816;-0.026;2023-04-06T01:52:29;6;4;
69238;PMS5003;56349;51.816;-0.026;2023-04-06T01:54:55;4;4;
69238;PMS5003;56349;51.816;-0.026;2023-04-06T01:57:21;5;5;
69238;PMS5003;56349;51.816;-0.026;2023-04-06T01:59:47;4;4;
69238;PMS5003;56349;51.816;-0.026;2023-04-06T02:02:13;4;4;
69238;PMS5003;56349;51.816;-0.026;2023-04-06T02:04:39;3;3;
69238;PMS5003;56349;51.816;-0.026;2023-04-06T02:07:05;5;5;
69238;PMS5003;56349;51.816;-0.026;2023-04-06T02:09:30;4;4;
69238;PMS5003;56349;51.816;-0.026;2023-04-06T02:11:56;5;5;
69238;PMS5003;56349;51.816;-0.026;2023-04-06T02:14:24;5;4;
69238;PMS5003;56349;51.816;-0.026;2023-04-06T02:16:48;4;4;
69238;PMS5003;56349;51.816;-0.026;2023-04-06T02:19:14;2;2;
69238;PMS5003;56349;51.816;-0.026;2023-04-06T02:21:40;4;4;
69238;PMS5003;56349;51.816;-0.026;2023-04-06T02:24:06;6;3;
69238;PMS5003;56349;51.816;-0.026;2023-04-06T02:26:32;4;4;
69238;PMS5003;56349;51.816;-0.026;2023-04-06T02:28:58;3;3;
69238;PMS5003;56349;51.816;-0.026;2023-04-06T02:31:24;3;2;
69238;PMS5003;56349;51.816;-0.026;2023-04-06T02:33:50;3;3;
69238;PMS5003;56349;51.816;-0.026;2023-04-06T02:36:16;3;3;
69238;PMS5003;56349;51.816;-0.026;2023-04-06T02:38:41;3;3;
69238;PMS5003;56349;51.816;-0.026;2023-04-06T02:41:07;5;5;
69238;PMS5003;56349;51.816;-0.026;2023-04-06T02:43:33;3;3;
69238;PMS5003;56349;51.816;-0.026;2023-04-06T02:45:59;4;4;
69238;PMS5003;56349;51.816;-0.026;2023-04-06T02:48:25;5;4;
69238;PMS5003;56349;51.816;-0.026;2023-04-06T02:50:51;7;7;
69238;PMS5003;56349;51.816;-0.026;2023-04-06T02:53:17;4;3;
69238;PMS5003;56349;51.816;-0.026;2023-04-06T02:55:43;5;5;
69238;PMS5003;56349;51.816;-0.026;2023-04-06T02:58:09;4;4;
69238;PMS5003;56349;51.816;-0.026;2023-04-06T03:00:35;4;4;
69238;PMS5003;56349;51.816;-0.026;2023-04-06T03:03:00;3;3;
69238;PMS5003;56349;51.816;-0.026;2023-04-06T03:05:26;3;3;
69238;PMS5003;56349;51.816;-0.026;2023-04-06T03:07:52;4;4;
69238;PMS5003;56349;51.816;-0.026;2023-04-06T03:10:18;3;3;
69238;PMS5003;56349;51.816;-0.026;2023-04-06T03:12:44;3;3;
69238;PMS5003;56349;51.816;-0.026;2023-04-06T03:15:10;5;5;
69238;PMS5003;56349;51.816;-0.026;2023-04-06T03:17:36;2;2;
69238;PMS5003;56349;51.816;-0.026;2023-04-06T03:20:02;3;3;
69238;PMS5003;56349;51.816;-0.026;2023-04-06T03:22:28;2;2;
69238;PMS5003;56349;51.816;-0.026;2023-04-06T03:24:52;3;3;
69238;PMS5003;56349;51.816;-0.026;2023-04-06T03:27:18;4;4;
69238;PMS5003;56349;51.816;-0.026;2023-04-06T03:29:44;4;4;
69238;PMS5003;56349;51.816;-0.026;2023-04-06T03:32:09;4;4;
69238;PMS5003;56349;51.816;-0.026;2023-04-06T03:34:35;3;3;
69238;PMS5003;56349;51.816;-0.026;2023-04-06T03:37:01;3;3;
69238;PMS5003;56349;51.816;-0.026;2023-04-06T03:39:27;4;4;
69238;PMS5003;56349;51.816;-0.026;2023-04-06T03:41:53;3;3;
69238;PMS5003;56349;51.816;-0.026;2023-04-06T03:44:19;3;3;
69238;PMS5003;56349;51.816;-0.026;2023-04-06T03:46:45;3;3;
69238;PMS5003;56349;51.816;-0.026;2023-04-06T03:49:11;3;3;
69238;PMS5003;56349;51.816;-0.026;2023-04-06T03:51:37;5;5;
69238;PMS5003;56349;51.816;-0.026;2023-04-06T03:54:03;4;4;
69238;PMS5003;56349;51.816;-0.026;2023-04-06T03:56:29;5;5;
69238;PMS5003;56349;51.816;-0.026;2023-04-06T03:58:55;4;4;
69238;PMS5003;56349;51.816;-0.026;2023-04-06T04:01:21;4;4;
69238;PMS5003;56349;51.816;-0.026;2023-04-06T04:03:47;3;3;
69238;PMS5003;56349;51.816;-0.026;2023-04-06T04:06:13;3;3;
69238;PMS5003;56349;51.816;-0.026;2023-04-06T04:08:39;6;3;
69238;PMS5003;56349;51.816;-0.026;2023-04-06T04:11:04;4;4;
69238;PMS5003;56349;51.816;-0.026;2023-04-06T04:13:30;4;4;
69238;PMS5003;56349;51.816;-0.026;2023-04-06T04:15:56;6;5;
69238;PMS5003;56349;51.816;-0.026;2023-04-06T04:18:22;3;2;
69238;PMS5003;56349;51.816;-0.026;2023-04-06T04:20:47;3;3;
69238;PMS5003;56349;51.816;-0.026;2023-04-06T04:23:13;4;4;
69238;PMS5003;56349;51.816;-0.026;2023-04-06T04:25:40;4;4;
69238;PMS5003;56349;51.816;-0.026;2023-04-06T04:28:05;3;3;
69238;PMS5003;56349;51.816;-0.026;2023-04-06T04:30:30;3;3;
69238;PMS5003;56349;51.816;-0.026;2023-04-06T04:32:56;3;3;
69238;PMS5003;56349;51.816;-0.026;2023-04-06T04:35:22;4;4;
69238;PMS5003;56349;51.816;-0.026;2023-04-06T04:37:48;4;4;
69238;PMS5003;56349;51.816;-0.026;2023-04-06T04:40:14;4;4;
69238;PMS5003;56349;51.816;-0.026;2023-04-06T04:42:40;3;3;
69238;PMS5003;56349;51.816;-0.026;2023-04-06T04:45:06;5;3;
69238;PMS5003;56349;51.816;-0.026;2023-04-06T04:47:31;6;5;
69238;PMS5003;56349;51.816;-0.026;2023-04-06T04:49:57;4;3;
69238;PMS5003;56349;51.816;-0.026;2023-04-06T04:52:23;5;5;
69238;PMS5003;56349;51.816;-0.026;2023-04-06T04:54:49;4;4;
69238;PMS5003;56349;51.816;-0.026;2023-04-06T04:57:15;3;3;
69238;PMS5003;56349;51.816;-0.026;2023-04-06T04:59:42;4;4;
69238;PMS5003;56349;51.816;-0.026;2023-04-06T05:02:07;4;4;
69238;PMS5003;56349;51.816;-0.026;2023-04-06T05:04:33;3;3;
69238;PMS5003;56349;51.816;-0.026;2023-04-06T05:07:03;3;3;
69238;PMS5003;56349;51.816;-0.026;2023-04-06T05:09:24;2;2;
69238;PMS5003;56349;51.816;-0.026;2023-04-06T05:11:50;3;3;
69238;PMS5003;56349;51.816;-0.026;2023-04-06T05:14:16;4;4;
69238;PMS5003;56349;51.816;-0.026;2023-04-06T05:16:42;3;3;
69238;PMS5003;56349;51.816;-0.026;2023-04-06T05:19:07;3;3;
69238;PMS5003;56349;51.816;-0.026;2023-04-06T05:21:33;4;4;
69238;PMS5003;56349;51.816;-0.026;2023-04-06T05:23:59;3;3;
69238;PMS5003;56349;51.816;-0.026;2023-04-06T05:26:25;3;3;
69238;PMS5003;56349;51.816;-0.026;2023-04-06T05:28:51;3;3;
69238;PMS5003;56349;51.816;-0.026;2023-04-06T05:31:17;1;1;
69238;PMS5003;56349;51.816;-0.026;2023-04-06T05:33:43;3;3;
69238;PMS5003;56349;51.816;-0.026;2023-04-06T05:36:09;2;2;
69238;PMS5003;56349;51.816;-0.026;2023-04-06T05:38:34;2;2;
69238;PMS5003;56349;51.816;-0.026;2023-04-06T05:41:00;2;2;
69238;PMS5003;56349;51.816;-0.026;2023-04-06T05:43:26;2;2;
69238;PMS5003;56349;51.816;-0.026;2023-04-06T05:45:52;5;4;
69238;PMS5003;56349;51.816;-0.026;2023-04-06T05:48:18;3;3;
69238;PMS5003;56349;51.816;-0.026;2023-04-06T05:50:47;3;3;
69238;PMS5003;56349;51.816;-0.026;2023-04-06T05:53:09;5;4;
69238;PMS5003;56349;51.816;-0.026;2023-04-06T05:55:35;4;4;
69238;PMS5003;56349;51.816;-0.026;2023-04-06T05:58:01;3;3;
69238;PMS5003;56349;51.816;-0.026;2023-04-06T06:00:27;4;4;
69238;PMS5003;56349;51.816;-0.026;2023-04-06T06:02:52;3;3;
69238;PMS5003;56349;51.816;-0.026;2023-04-06T06:05:18;2;2;
69238;PMS5003;56349;51.816;-0.026;2023-04-06T06:07:44;1;1;
69238;PMS5003;56349;51.816;-0.026;2023-04-06T06:10:10;1;1;
69238;PMS5003;56349;51.816;-0.026;2023-04-06T06:12:35;1;1;
69238;PMS5003;56349;51.816;-0.026;2023-04-06T06:15:01;0;0;
69238;PMS5003;56349;51.816;-0.026;2023-04-06T06:17:26;1;1;
69238;PMS5003;56349;51.816;-0.026;2023-04-06T06:19:52;2;2;
69238;PMS5003;56349;51.816;-0.026;2023-04-06T06:22:18;2;2;
69238;PMS5003;56349;51.816;-0.026;2023-04-06T06:24:44;1;1;
69238;PMS5003;56349;51.816;-0.026;2023-04-06T06:27:10;0;0;
69238;PMS5003;56349;51.816;-0.026;2023-04-06T06:29:36;1;1;
69238;PMS5003;56349;51.816;-0.026;2023-04-06T06:32:02;3;3;
69238;PMS5003;56349;51.816;-0.026;2023-04-06T06:34:28;0;0;
69238;PMS5003;56349;51.816;-0.026;2023-04-06T06:36:54;2;2;
69238;PMS5003;56349;51.816;-0.026;2023-04-06T06:39:20;2;2;
69238;PMS5003;56349;51.816;-0.026;2023-04-06T06:41:45;0;0;
69238;PMS5003;56349;51.816;-0.026;2023-04-06T06:44:10;2;2;
69238;PMS5003;56349;51.816;-0.026;2023-04-06T06:46:36;1;1;
69238;PMS5003;56349;51.816;-0.026;2023-04-06T06:49:02;1;1;
69238;PMS5003;56349;51.816;-0.026;2023-04-06T06:51:28;1;1;
69238;PMS5003;56349;51.816;-0.026;2023-04-06T06:53:54;1;1;
69238;PMS5003;56349;51.816;-0.026;2023-04-06T06:56:20;1;1;
69238;PMS5003;56349;51.816;-0.026;2023-04-06T06:58:46;1;1;
69238;PMS5003;56349;51.816;-0.026;2023-04-06T07:01:12;3;3;
69238;PMS5003;56349;51.816;-0.026;2023-04-06T07:03:38;0;0;
69238;PMS5003;56349;51.816;-0.026;2023-04-06T07:06:04;2;2;
69238;PMS5003;56349;51.816;-0.026;2023-04-06T07:08:30;1;1;
69238;PMS5003;56349;51.816;-0.026;2023-04-06T07:10:56;0;0;
69238;PMS5003;56349;51.816;-0.026;2023-04-06T07:13:21;2;2;
69238;PMS5003;56349;51.816;-0.026;2023-04-06T07:15:47;1;1;
69238;PMS5003;56349;51.816;-0.026;2023-04-06T07:18:13;0;0;
69238;PMS5003;56349;51.816;-0.026;2023-04-06T07:20:39;1;1;
69238;PMS5003;56349;51.816;-0.026;2023-04-06T07:23:05;2;2;
69238;PMS5003;56349;51.816;-0.026;2023-04-06T07:25:31;2;2;
69238;PMS5003;56349;51.816;-0.026;2023-04-06T07:27:57;1;1;
69238;PMS5003;56349;51.816;-0.026;2023-04-06T07:30:23;1;1;
69238;PMS5003;56349;51.816;-0.026;2023-04-06T07:32:49;2;2;
69238;PMS5003;56349;51.816;-0.026;2023-04-06T07:35:15;0;0;
69238;PMS5003;56349;51.816;-0.026;2023-04-06T07:37:41;1;1;
69238;PMS5003;56349;51.816;-0.026;2023-04-06T07:40:07;1;1;
69238;PMS5003;56349;51.816;-0.026;2023-04-06T07:42:33;2;2;
69238;PMS5003;56349;51.816;-0.026;2023-04-06T07:44:59;1;1;
69238;PMS5003;56349;51.816;-0.026;2023-04-06T07:47:25;2;2;
69238;PMS5003;56349;51.816;-0.026;2023-04-06T07:49:50;2;2;
69238;PMS5003;56349;51.816;-0.026;2023-04-06T07:52:17;1;1;
69238;PMS5003;56349;51.816;-0.026;2023-04-06T07:54:42;2;2;
69238;PMS5003;56349;51.816;-0.026;2023-04-06T07:57:08;1;1;
69238;PMS5003;56349;51.816;-0.026;2023-04-06T07:59:34;2;2;
69238;PMS5003;56349;51.816;-0.026;2023-04-06T08:02:00;1;1;
69238;PMS5003;56349;51.816;-0.026;2023-04-06T08:04:26;1;1;
69238;PMS5003;56349;51.816;-0.026;2023-04-06T08:06:52;1;1;
69238;PMS5003;56349;51.816;-0.026;2023-04-06T08:09:18;2;2;
69238;PMS5003;56349;51.816;-0.026;2023-04-06T08:11:44;1;1;
69238;PMS5003;56349;51.816;-0.026;2023-04-06T08:14:09;2;2;
69238;PMS5003;56349;51.816;-0.026;2023-04-06T08:16:35;1;1;
69238;PMS5003;56349;51.816;-0.026;2023-04-06T08:19:01;1;1;
69238;PMS5003;56349;51.816;-0.026;2023-04-06T08:21:27;1;1;
69238;PMS5003;56349;51.816;-0.026;2023-04-06T08:23:53;1;1;
69238;PMS5003;56349;51.816;-0.026;2023-04-06T08:26:19;2;2;
69238;PMS5003;56349;51.816;-0.026;2023-04-06T08:28:45;2;2;
69238;PMS5003;56349;51.816;-0.026;2023-04-06T08:31:11;1;1;
69238;PMS5003;56349;51.816;-0.026;2023-04-06T08:33:37;2;2;
69238;PMS5003;56349;51.816;-0.026;2023-04-06T08:36:07;1;1;
69238;PMS5003;56349;51.816;-0.026;2023-04-06T08:38:29;0;0;
69238;PMS5003;56349;51.816;-0.026;2023-04-06T08:40:55;1;1;
69238;PMS5003;56349;51.816;-0.026;2023-04-06T08:43:21;0;0;
69238;PMS5003;56349;51.816;-0.026;2023-04-06T08:45:47;1;1;
69238;PMS5003;56349;51.816;-0.026;2023-04-06T08:48:12;2;2;
69238;PMS5003;56349;51.816;-0.026;2023-04-06T08:50:38;1;1;
69238;PMS5003;56349;51.816;-0.026;2023-04-06T08:53:04;1;1;
69238;PMS5003;56349;51.816;-0.026;2023-04-06T08:55:30;2;2;
69238;PMS5003;56349;51.816;-0.026;2023-04-06T08:57:55;1;1;
69238;PMS5003;56349;51.816;-0.026;2023-04-06T09:00:21;3;1;
69238;PMS5003;56349;51.816;-0.026;2023-04-06T09:02:47;1;1;
69238;PMS5003;56349;51.816;-0.026;2023-04-06T09:05:12;1;1;
69238;PMS5003;56349;51.816;-0.026;2023-04-06T09:07:40;3;2;
69238;PMS5003;56349;51.816;-0.026;2023-04-06T09:10:04;1;1;
69238;PMS5003;56349;51.816;-0.026;2023-04-06T09:12:29;1;1;
69238;PMS5003;56349;51.816;-0.026;2023-04-06T09:14:55;2;2;
69238;PMS5003;56349;51.816;-0.026;2023-04-06T09:17:20;1;1;
69238;PMS5003;56349;51.816;-0.026;2023-04-06T09:19:46;1;1;
69238;PMS5003;56349;51.816;-0.026;2023-04-06T09:22:11;3;2;
69238;PMS5003;56349;51.816;-0.026;2023-04-06T09:24:41;1;1;
69238;PMS5003;56349;51.816;-0.026;2023-04-06T09:27:03;1;1;
69238;PMS5003;56349;51.816;-0.026;2023-04-06T09:29:29;2;2;
69238;PMS5003;56349;51.816;-0.026;2023-04-06T09:34:21;2;2;
69238;PMS5003;56349;51.816;-0.026;2023-04-06T09:36:46;4;4;
69238;PMS5003;56349;51.816;-0.026;2023-04-06T09:39:12;2;2;
69238;PMS5003;56349;51.816;-0.026;2023-04-06T09:41:37;1;1;
69238;PMS5003;56349;51.816;-0.026;2023-04-06T09:44:04;1;1;
69238;PMS5003;56349;51.816;-0.026;2023-04-06T09:46:30;1;1;
69238;PMS5003;56349;51.816;-0.026;2023-04-06T09:48:55;1;1;
69238;PMS5003;56349;51.816;-0.026;2023-04-06T09:51:20;2;2;
69238;PMS5003;56349;51.816;-0.026;2023-04-06T09:53:48;3;1;
69238;PMS5003;56349;51.816;-0.026;2023-04-06T09:56:12;1;1;
69238;PMS5003;56349;51.816;-0.026;2023-04-06T09:58:38;1;1;
69238;PMS5003;56349;51.816;-0.026;2023-04-06T10:01:05;1;1;
69238;PMS5003;56349;51.816;-0.026;2023-04-06T10:03:31;1;0;
69238;PMS5003;56349;51.816;-0.026;2023-04-06T10:05:55;2;2;
69238;PMS5003;56349;51.816;-0.026;2023-04-06T10:08:20;2;2;
69238;PMS5003;56349;51.816;-0.026;2023-04-06T10:10:46;2;1;
69238;PMS5003;56349;51.816;-0.026;2023-04-06T10:13:11;5;3;
69238;PMS5003;56349;51.816;-0.026;2023-04-06T10:15:37;2;2;
69238;PMS5003;56349;51.816;-0.026;2023-04-06T10:18:03;2;2;
69238;PMS5003;56349;51.816;-0.026;2023-04-06T10:20:30;2;2;
69238;PMS5003;56349;51.816;-0.026;2023-04-06T10:22:55;2;2;
69238;PMS5003;56349;51.816;-0.026;2023-04-06T10:27:46;1;1;
69238;PMS5003;56349;51.816;-0.026;2023-04-06T10:30:14;1;1;
69238;PMS5003;56349;51.816;-0.026;2023-04-06T10:32:37;1;1;
69238;PMS5003;56349;51.816;-0.026;2023-04-06T10:35:06;1;1;
69238;PMS5003;56349;51.816;-0.026;2023-04-06T10:37:29;1;1;
69238;PMS5003;56349;51.816;-0.026;2023-04-06T10:39:55;3;3;
69238;PMS5003;56349;51.816;-0.026;2023-04-06T10:42:23;2;2;
69238;PMS5003;56349;51.816;-0.026;2023-04-06T10:44:45;1;1;
69238;PMS5003;56349;51.816;-0.026;2023-04-06T10:47:17;3;2;
69238;PMS5003;56349;51.816;-0.026;2023-04-06T10:49:37;2;2;
69238;PMS5003;56349;51.816;-0.026;2023-04-06T10:52:03;2;2;
69238;PMS5003;56349;51.816;-0.026;2023-04-06T10:54:28;1;1;
69238;PMS5003;56349;51.816;-0.026;2023-04-06T10:56:54;1;1;
69238;PMS5003;56349;51.816;-0.026;2023-04-06T10:59:21;0;0;
69238;PMS5003;56349;51.816;-0.026;2023-04-06T11:01:46;1;0;
69238;PMS5003;56349;51.816;-0.026;2023-04-06T11:04:15;1;1;
69238;PMS5003;56349;51.816;-0.026;2023-04-06T11:06:37;3;2;
69238;PMS5003;56349;51.816;-0.026;2023-04-06T11:09:02;2;1;
69238;PMS5003;56349;51.816;-0.026;2023-04-06T11:11:28;1;1;
69238;PMS5003;56349;51.816;-0.026;2023-04-06T11:13:55;1;1;
69238;PMS5003;56349;51.816;-0.026;2023-04-06T11:16:20;1;1;
69238;PMS5003;56349;51.816;-0.026;2023-04-06T11:18:47;1;1;
69238;PMS5003;56349;51.816;-0.026;2023-04-06T11:21:10;2;1;
69238;PMS5003;56349;51.816;-0.026;2023-04-06T11:23:36;1;1;
69238;PMS5003;56349;51.816;-0.026;2023-04-06T11:26:02;2;1;
69238;PMS5003;56349;51.816;-0.026;2023-04-06T11:28:27;1;1;
69238;PMS5003;56349;51.816;-0.026;2023-04-06T11:30:53;2;2;
69238;PMS5003;56349;51.816;-0.026;2023-04-06T11:33:20;2;1;
69238;PMS5003;56349;51.816;-0.026;2023-04-06T11:35:45;2;2;
69238;PMS5003;56349;51.816;-0.026;2023-04-06T11:38:11;2;1;
69238;PMS5003;56349;51.816;-0.026;2023-04-06T11:40:37;3;1;
69238;PMS5003;56349;51.816;-0.026;2023-04-06T11:43:04;1;1;
69238;PMS5003;56349;51.816;-0.026;2023-04-06T11:45:28;1;0;
69238;PMS5003;56349;51.816;-0.026;2023-04-06T11:47:55;2;0;
69238;PMS5003;56349;51.816;-0.026;2023-04-06T11:50:20;0;0;
69238;PMS5003;56349;51.816;-0.026;2023-04-06T11:52:47;3;1;
69238;PMS5003;56349;51.816;-0.026;2023-04-06T11:55:11;0;0;
69238;PMS5003;56349;51.816;-0.026;2023-04-06T11:57:36;1;1;
69238;PMS5003;56349;51.816;-0.026;2023-04-06T12:00:02;1;1;
69238;PMS5003;56349;51.816;-0.026;2023-04-06T12:02:28;1;1;
69238;PMS5003;56349;51.816;-0.026;2023-04-06T12:04:54;0;0;
69238;PMS5003;56349;51.816;-0.026;2023-04-06T12:07:20;1;1;
69238;PMS5003;56349;51.816;-0.026;2023-04-06T12:09:45;1;0;
69238;PMS5003;56349;51.816;-0.026;2023-04-06T12:12:11;1;1;
69238;PMS5003;56349;51.816;-0.026;2023-04-06T12:14:37;3;2;
69238;PMS5003;56349;51.816;-0.026;2023-04-06T12:17:03;2;2;
69238;PMS5003;56349;51.816;-0.026;2023-04-06T12:19:29;4;2;
69238;PMS5003;56349;51.816;-0.026;2023-04-06T12:21:55;1;1;
69238;PMS5003;56349;51.816;-0.026;2023-04-06T12:24:21;3;3;
69238;PMS5003;56349;51.816;-0.026;2023-04-06T12:26:47;2;2;
69238;PMS5003;56349;51.816;-0.026;2023-04-06T12:29:13;2;2;
69238;PMS5003;56349;51.816;-0.026;2023-04-06T12:31:39;1;1;
69238;PMS5003;56349;51.816;-0.026;2023-04-06T12:34:04;1;1;
69238;PMS5003;56349;51.816;-0.026;2023-04-06T12:36:30;1;1;
69238;PMS5003;56349;51.816;-0.026;2023-04-06T12:38:56;0;0;
69238;PMS5003;56349;51.816;-0.026;2023-04-06T12:41:21;2;2;
69238;PMS5003;56349;51.816;-0.026;2023-04-06T12:43:48;1;1;
69238;PMS5003;56349;51.816;-0.026;2023-04-06T12:46:13;0;0;
69238;PMS5003;56349;51.816;-0.026;2023-04-06T12:48:39;4;3;
69238;PMS5003;56349;51.816;-0.026;2023-04-06T12:51:05;2;2;
69238;PMS5003;56349;51.816;-0.026;2023-04-06T12:53:31;1;1;
69238;PMS5003;56349;51.816;-0.026;2023-04-06T12:55:56;2;1;
69238;PMS5003;56349;51.816;-0.026;2023-04-06T12:58:22;1;1;
69238;PMS5003;56349;51.816;-0.026;2023-04-06T13:00:47;3;1;
69238;PMS5003;56349;51.816;-0.026;2023-04-06T13:03:12;0;0;
69238;PMS5003;56349;51.816;-0.026;2023-04-06T13:05:43;2;1;
69238;PMS5003;56349;51.816;-0.026;2023-04-06T13:08:03;0;0;
69238;PMS5003;56349;51.816;-0.026;2023-04-06T13:10:29;1;1;
69238;PMS5003;56349;51.816;-0.026;2023-04-06T13:12:55;0;0;
69238;PMS5003;56349;51.816;-0.026;2023-04-06T13:15:21;1;1;
69238;PMS5003;56349;51.816;-0.026;2023-04-06T13:17:47;0;0;
69238;PMS5003;56349;51.816;-0.026;2023-04-06T13:20:12;0;0;
69238;PMS5003;56349;51.816;-0.026;2023-04-06T13:22:38;0;0;
69238;PMS5003;56349;51.816;-0.026;2023-04-06T13:25:04;3;2;
69238;PMS5003;56349;51.816;-0.026;2023-04-06T13:27:29;0;0;
69238;PMS5003;56349;51.816;-0.026;2023-04-06T13:29:55;2;1;
69238;PMS5003;56349;51.816;-0.026;2023-04-06T13:32:21;4;4;
69238;PMS5003;56349;51.816;-0.026;2023-04-06T13:34:47;2;1;
69238;PMS5003;56349;51.816;-0.026;2023-04-06T13:37:13;2;2;
69238;PMS5003;56349;51.816;-0.026;2023-04-06T13:39:39;1;1;
69238;PMS5003;56349;51.816;-0.026;2023-04-06T13:42:05;1;1;
69238;PMS5003;56349;51.816;-0.026;2023-04-06T13:44:31;2;2;
69238;PMS5003;56349;51.816;-0.026;2023-04-06T13:46:57;4;4;
69238;PMS5003;56349;51.816;-0.026;2023-04-06T13:49:23;12;12;
69238;PMS5003;56349;51.816;-0.026;2023-04-06T13:51:49;18;17;
69238;PMS5003;56349;51.816;-0.026;2023-04-06T13:54:15;18;18;
69238;PMS5003;56349;51.816;-0.026;2023-04-06T13:56:40;22;22;
69238;PMS5003;56349;51.816;-0.026;2023-04-06T13:59:06;20;19;
69238;PMS5003;56349;51.816;-0.026;2023-04-06T14:01:32;19;18;
69238;PMS5003;56349;51.816;-0.026;2023-04-06T14:03:58;18;18;
69238;PMS5003;56349;51.816;-0.026;2023-04-06T14:06:24;21;21;
69238;PMS5003;56349;51.816;-0.026;2023-04-06T14:08:50;19;18;
69238;PMS5003;56349;51.816;-0.026;2023-04-06T14:11:16;19;19;
69238;PMS5003;56349;51.816;-0.026;2023-04-06T14:13:42;15;15;
69238;PMS5003;56349;51.816;-0.026;2023-04-06T14:16:08;19;18;
69238;PMS5003;56349;51.816;-0.026;2023-04-06T14:18:34;17;16;
69238;PMS5003;56349;51.816;-0.026;2023-04-06T14:20:59;17;17;
69238;PMS5003;56349;51.816;-0.026;2023-04-06T14:23:24;21;19;
69238;PMS5003;56349;51.816;-0.026;2023-04-06T14:25:51;15;15;
69238;PMS5003;56349;51.816;-0.026;2023-04-06T14:28:17;14;14;
69238;PMS5003;56349;51.816;-0.026;2023-04-06T14:30:42;14;14;
69238;PMS5003;56349;51.816;-0.026;2023-04-06T14:33:09;13;13;
69238;PMS5003;56349;51.816;-0.026;2023-04-06T14:35:37;14;14;
69238;PMS5003;56349;51.816;-0.026;2023-04-06T14:38:00;15;15;
69238;PMS5003;56349;51.816;-0.026;2023-04-06T14:40:26;13;13;
69238;PMS5003;56349;51.816;-0.026;2023-04-06T14:42:52;16;16;
69238;PMS5003;56349;51.816;-0.026;2023-04-06T14:45:18;15;14;
69238;PMS5003;56349;51.816;-0.026;2023-04-06T14:47:44;13;13;
69238;PMS5003;56349;51.816;-0.026;2023-04-06T14:50:10;16;16;
69238;PMS5003;56349;51.816;-0.026;2023-04-06T14:52:35;16;16;
69238;PMS5003;56349;51.816;-0.026;2023-04-06T14:55:01;15;15;
69238;PMS5003;56349;51.816;-0.026;2023-04-06T14:57:27;13;13;
69238;PMS5003;56349;51.816;-0.026;2023-04-06T14:59:53;14;13;
69238;PMS5003;56349;51.816;-0.026;2023-04-06T15:02:19;16;16;
69238;PMS5003;56349;51.816;-0.026;2023-04-06T15:04:45;11;11;
69238;PMS5003;56349;51.816;-0.026;2023-04-06T15:07:10;16;16;
69238;PMS5003;56349;51.816;-0.026;2023-04-06T15:09:37;13;13;
69238;PMS5003;56349;51.816;-0.026;2023-04-06T15:12:03;13;13;
69238;PMS5003;56349;51.816;-0.026;2023-04-06T15:14:29;16;15;
69238;PMS5003;56349;51.816;-0.026;2023-04-06T15:16:55;14;13;
69238;PMS5003;56349;51.816;-0.026;2023-04-06T15:19:21;14;14;
69238;PMS5003;56349;51.816;-0.026;2023-04-06T15:21:47;13;13;
69238;PMS5003;56349;51.816;-0.026;2023-04-06T15:24:13;11;10;
69238;PMS5003;56349;51.816;-0.026;2023-04-06T15:26:39;13;13;
69238;PMS5003;56349;51.816;-0.026;2023-04-06T15:29:05;11;11;
69238;PMS5003;56349;51.816;-0.026;2023-04-06T15:31:31;13;11;
69238;PMS5003;56349;51.816;-0.026;2023-04-06T15:33:57;13;12;
69238;PMS5003;56349;51.816;-0.026;2023-04-06T15:36:25;13;12;
69238;PMS5003;56349;51.816;-0.026;2023-04-06T15:38:48;11;11;
69238;PMS5003;56349;51.816;-0.026;2023-04-06T15:41:14;13;13;
69238;PMS5003;56349;51.816;-0.026;2023-04-06T15:43:40;13;13;
69238;PMS5003;56349;51.816;-0.026;2023-04-06T15:46:06;12;12;
69238;PMS5003;56349;51.816;-0.026;2023-04-06T15:48:31;12;12;
69238;PMS5003;56349;51.816;-0.026;2023-04-06T15:50:57;11;11;
69238;PMS5003;56349;51.816;-0.026;2023-04-06T15:53:23;12;12;
69238;PMS5003;56349;51.816;-0.026;2023-04-06T15:55:49;12;12;
69238;PMS5003;56349;51.816;-0.026;2023-04-06T15:58:15;12;12;
69238;PMS5003;56349;51.816;-0.026;2023-04-06T16:00:41;13;13;
69238;PMS5003;56349;51.816;-0.026;2023-04-06T16:03:06;12;12;
69238;PMS5003;56349;51.816;-0.026;2023-04-06T16:05:32;12;11;
69238;PMS5003;56349;51.816;-0.026;2023-04-06T16:07:58;12;12;
69238;PMS5003;56349;51.816;-0.026;2023-04-06T16:10:24;13;12;
69238;PMS5003;56349;51.816;-0.026;2023-04-06T16:12:51;13;12;
69238;PMS5003;56349;51.816;-0.026;2023-04-06T16:15:16;13;11;
69238;PMS5003;56349;51.816;-0.026;2023-04-06T16:17:42;9;9;
69238;PMS5003;56349;51.816;-0.026;2023-04-06T16:20:08;10;9;
69238;PMS5003;56349;51.816;-0.026;2023-04-06T16:22:33;9;9;